Time;durP1;ratioP1;P1;durP2;ratioP2;P2;SDS_P1;SDS_P2;PMS_P1;PMS_P2;Temp;Humidity;BMP_temperature;BMP_pressure;BME280_temperature;BME280_humidity;BME280_pressure;Samples;Min_cycle;Max_cycle;Signal;HPM_P1;HPM_P2
2020/12/27 00:01:09;;;;;;;;;;;3.80;72.00;;;;;;4975104;28;19937;-46
2020/12/27 00:03:35;;;;;;;;;;;3.80;72.20;;;;;;4968545;28;19933;-47
2020/12/27 00:06:01;;;;;;;;;;;3.70;72.00;;;;;;4972770;28;20377;-47
2020/12/27 00:08:28;;;;;;;;;;;3.70;71.90;;;;;;4967457;28;19933;-47
2020/12/27 00:10:54;;;;;;;;;;;3.70;72.10;;;;;;4966438;28;19933;-48
2020/12/27 00:13:20;;;;;;;;;;;3.70;72.40;;;;;;4968434;28;19956;-45
2020/12/27 00:15:46;;;;;;;;;;;3.70;72.50;;;;;;4965996;28;20360;-45
2020/12/27 00:18:13;;;;;;;;;;;3.80;72.40;;;;;;4969915;28;19925;-47
2020/12/27 00:20:39;;;;;;;;;;;3.80;72.00;;;;;;4965732;28;19931;-46
2020/12/27 00:23:06;;;;;;;;;;;3.80;71.90;;;;;;4968038;28;19941;-45
2020/12/27 00:25:32;;;;;;;;;;;3.80;71.80;;;;;;4965283;28;20365;-46
2020/12/27 00:27:58;;;;;;;;;;;3.70;71.90;;;;;;4966727;28;19929;-46
2020/12/27 00:30:24;;;;;;;;;;;3.80;71.70;;;;;;4969294;28;20573;-44
2020/12/27 00:32:51;;;;;;;;;;;3.70;71.80;;;;;;4965435;28;19933;-46
2020/12/27 00:35:17;;;;;;;;;;;3.70;71.40;;;;;;4971165;28;19940;-46
2020/12/27 00:37:43;;;;;;;;;;;3.60;71.70;;;;;;4966198;28;19933;-46
2020/12/27 00:40:10;;;;;;;;;;;3.50;71.40;;;;;;4967595;28;19939;-47
2020/12/27 00:42:36;;;;;;;;;;;3.40;71.50;;;;;;4962868;28;19929;-47
2020/12/27 00:45:03;;;;;;;;;;;3.40;71.60;;;;;;4984056;28;20406;-46
2020/12/27 00:47:29;;;;;;;;;;;3.30;71.70;;;;;;4965655;28;19929;-46
2020/12/27 00:49:55;;;;;;;;;;;3.30;72.00;;;;;;4968132;28;19939;-43
2020/12/27 00:52:21;;;;;;;;;;;3.30;71.80;;;;;;4979623;28;20047;-44
2020/12/27 00:54:48;;;;;;;;;;;3.30;72.10;;;;;;4966991;28;19957;-47
2020/12/27 00:57:14;;;;;;;;;;;3.30;71.90;;;;;;4965885;28;19944;-44
2020/12/27 00:59:40;;;;;;;;;;;3.20;71.40;;;;;;4958913;28;19931;-45
2020/12/27 01:02:06;;;;;;;;;;;3.10;71.60;;;;;;4966354;28;19933;-47
2020/12/27 01:04:32;;;;;;;;;;;3.10;72.00;;;;;;4963380;28;19940;-46
2020/12/27 01:06:58;;;;;;;;;;;3.00;71.70;;;;;;4979509;28;19933;-47
2020/12/27 01:09:25;;;;;;;;;;;3.00;72.20;;;;;;4963410;28;19926;-47
2020/12/27 01:11:53;;;;;;;;;;;3.00;72.10;;;;;;4967979;28;20290;-47
2020/12/27 01:14:19;;;;;;;;;;;3.00;72.30;;;;;;4956753;28;19933;-44
2020/12/27 01:16:46;;;;;;;;;;;3.10;72.20;;;;;;4962270;28;20378;-47
2020/12/27 01:19:12;;;;;;;;;;;3.00;72.40;;;;;;4960801;28;19932;-46
2020/12/27 01:21:41;;;;;;;;;;;3.00;72.30;;;;;;4963484;28;20401;-46
2020/12/27 01:24:10;;;;;;;;;;;3.00;72.30;;;;;;4963623;28;19933;-46
2020/12/27 01:26:36;;;;;;;;;;;3.10;72.40;;;;;;4965516;28;19929;-46
2020/12/27 01:29:03;;;;;;;;;;;3.20;72.60;;;;;;4964883;28;20286;-42
2020/12/27 01:31:30;;;;;;;;;;;3.30;72.40;;;;;;4966347;28;19971;-47
2020/12/27 01:33:56;;;;;;;;;;;3.30;72.50;;;;;;4962274;28;19932;-46
2020/12/27 01:36:29;;;;;;;;;;;3.40;72.60;;;;;;4964837;28;19933;-48
2020/12/27 01:38:56;;;;;;;;;;;3.40;72.70;;;;;;4955629;28;21161;-46
2020/12/27 01:41:23;;;;;;;;;;;3.40;72.90;;;;;;4965497;28;19940;-44
2020/12/27 01:44:04;;;;;;;;;;;3.40;73.10;;;;;;4962302;28;19929;-46
2020/12/27 01:46:32;;;;;;;;;;;3.30;73.20;;;;;;4976834;28;19932;-47
2020/12/27 01:48:58;;;;;;;;;;;3.40;73.20;;;;;;4965279;28;20373;-47
2020/12/27 01:51:24;;;;;;;;;;;3.30;73.20;;;;;;4962812;28;19929;-47
2020/12/27 01:53:50;;;;;;;;;;;3.30;73.70;;;;;;4969190;28;19929;-47
2020/12/27 01:56:18;;;;;;;;;;;3.20;73.70;;;;;;4965812;28;20369;-44
2020/12/27 01:58:50;;;;;;;;;;;3.20;73.80;;;;;;4964148;28;19944;-46
2020/12/27 02:01:16;;;;;;;;;;;3.30;73.70;;;;;;4962391;28;19957;-46
2020/12/27 02:03:43;;;;;;;;;;;3.30;73.70;;;;;;4960878;28;19928;-46
2020/12/27 02:06:09;;;;;;;;;;;3.20;73.90;;;;;;4969284;28;20370;-44
2020/12/27 02:08:36;;;;;;;;;;;3.20;74.00;;;;;;4966930;28;19933;-46
2020/12/27 02:11:03;;;;;;;;;;;3.20;74.10;;;;;;4964766;28;19944;-43
2020/12/27 02:13:29;;;;;;;;;;;3.20;74.20;;;;;;4961771;28;19933;-45
2020/12/27 02:15:56;;;;;;;;;;;3.20;74.10;;;;;;4966606;28;19929;-45
2020/12/27 02:18:22;;;;;;;;;;;3.20;74.00;;;;;;4965800;28;19929;-47
2020/12/27 02:20:49;;;;;;;;;;;3.20;73.80;;;;;;4962142;28;19933;-45
2020/12/27 02:23:16;;;;;;;;;;;3.20;74.00;;;;;;4966311;28;19933;-46
2020/12/27 02:25:43;;;;;;;;;;;3.20;74.10;;;;;;4968122;28;19925;-45
2020/12/27 02:28:09;;;;;;;;;;;3.10;74.00;;;;;;4970336;28;19933;-47
2020/12/27 02:30:38;;;;;;;;;;;3.10;74.50;;;;;;4965773;28;19933;-46
2020/12/27 02:33:04;;;;;;;;;;;3.10;74.30;;;;;;4966744;28;19979;-46
2020/12/27 02:35:30;;;;;;;;;;;3.10;74.30;;;;;;4967174;28;20601;-44
2020/12/27 02:37:57;;;;;;;;;;;3.10;74.10;;;;;;4972832;28;19932;-47
2020/12/27 02:40:23;;;;;;;;;;;3.10;74.50;;;;;;4982278;28;19933;-47
2020/12/27 02:42:49;;;;;;;;;;;3.10;74.60;;;;;;4967437;28;19940;-47
2020/12/27 02:45:18;;;;;;;;;;;3.10;74.30;;;;;;4968557;28;19925;-45
2020/12/27 02:47:44;;;;;;;;;;;3.10;74.30;;;;;;4970021;28;19925;-48
2020/12/27 02:50:11;;;;;;;;;;;3.10;74.40;;;;;;4967907;28;19940;-46
2020/12/27 02:52:37;;;;;;;;;;;3.10;74.40;;;;;;4964545;28;19925;-46
2020/12/27 02:55:07;;;;;;;;;;;2.90;74.70;;;;;;4966266;28;19940;-46
2020/12/27 02:57:33;;;;;;;;;;;2.90;75.00;;;;;;4968959;28;19926;-46
2020/12/27 03:00:00;;;;;;;;;;;2.90;75.00;;;;;;4968445;28;19933;-47
2020/12/27 03:02:26;;;;;;;;;;;2.90;75.00;;;;;;4964069;28;19940;-47
2020/12/27 03:04:52;;;;;;;;;;;2.90;75.00;;;;;;4968441;28;20297;-45
2020/12/27 03:07:18;;;;;;;;;;;2.90;74.80;;;;;;4971992;28;19929;-46
2020/12/27 03:09:44;;;;;;;;;;;2.80;74.70;;;;;;4964038;28;19931;-45
2020/12/27 03:12:11;;;;;;;;;;;2.80;74.80;;;;;;4981090;28;21753;-47
2020/12/27 03:14:37;;;;;;;;;;;2.80;75.10;;;;;;4966952;28;19925;-46
2020/12/27 03:17:03;;;;;;;;;;;2.80;75.10;;;;;;4970940;28;19936;-48
2020/12/27 03:19:29;;;;;;;;;;;2.80;75.10;;;;;;4966608;28;19945;-48
2020/12/27 03:21:55;;;;;;;;;;;2.80;75.00;;;;;;4961490;28;22478;-46
2020/12/27 03:24:22;;;;;;;;;;;2.70;75.60;;;;;;4968433;28;19929;-43
2020/12/27 03:26:48;;;;;;;;;;;2.70;75.50;;;;;;4972642;28;19929;-45
2020/12/27 03:29:14;;;;;;;;;;;2.70;75.80;;;;;;4960368;28;20292;-46
2020/12/27 03:31:41;;;;;;;;;;;2.70;76.00;;;;;;4967810;28;19940;-46
2020/12/27 03:34:10;;;;;;;;;;;2.70;75.90;;;;;;4973871;28;19940;-45
2020/12/27 03:36:43;;;;;;;;;;;2.70;75.80;;;;;;4965729;28;19933;-46
2020/12/27 03:39:09;;;;;;;;;;;2.70;75.60;;;;;;4967390;28;20153;-44
2020/12/27 03:41:35;;;;;;;;;;;2.70;75.60;;;;;;4965008;28;20415;-45
2020/12/27 03:44:02;;;;;;;;;;;2.80;75.40;;;;;;4963537;28;19940;-44
2020/12/27 03:46:28;;;;;;;;;;;2.80;75.30;;;;;;4964789;28;19930;-44
2020/12/27 03:48:54;;;;;;;;;;;2.80;75.30;;;;;;4968334;28;19925;-42
2020/12/27 03:51:20;;;;;;;;;;;2.80;75.20;;;;;;4967778;28;19932;-44
2020/12/27 03:53:49;;;;;;;;;;;2.80;75.00;;;;;;4965683;28;19934;-44
2020/12/27 03:56:15;;;;;;;;;;;2.80;74.90;;;;;;4969103;28;19929;-45
2020/12/27 03:58:42;;;;;;;;;;;2.80;74.80;;;;;;4965214;28;19940;-47
2020/12/27 04:01:08;;;;;;;;;;;2.80;75.00;;;;;;4967281;28;19991;-44
2020/12/27 04:03:34;;;;;;;;;;;2.70;75.20;;;;;;4943494;28;19936;-45
2020/12/27 04:06:02;;;;;;;;;;;2.70;75.10;;;;;;4967288;28;19929;-45
2020/12/27 04:08:29;;;;;;;;;;;2.80;75.00;;;;;;4965446;28;21800;-46
2020/12/27 04:10:55;;;;;;;;;;;2.80;74.90;;;;;;4968920;28;19936;-48
2020/12/27 04:13:24;;;;;;;;;;;2.70;75.00;;;;;;4966814;28;19933;-47
2020/12/27 04:15:50;;;;;;;;;;;2.70;75.10;;;;;;4969313;28;19926;-45
2020/12/27 04:18:16;;;;;;;;;;;2.70;75.10;;;;;;4970746;28;19933;-45
2020/12/27 04:20:43;;;;;;;;;;;2.70;75.10;;;;;;4967967;28;19929;-47
2020/12/27 04:23:09;;;;;;;;;;;2.70;75.10;;;;;;4963206;28;19937;-45
2020/12/27 04:25:36;;;;;;;;;;;2.60;75.10;;;;;;4966246;28;19932;-43
2020/12/27 04:28:02;;;;;;;;;;;2.60;75.10;;;;;;4974477;28;19968;-46
2020/12/27 04:30:28;;;;;;;;;;;2.60;74.90;;;;;;4962639;28;19932;-46
2020/12/27 04:32:54;;;;;;;;;;;2.70;74.90;;;;;;4949636;28;20305;-47
2020/12/27 04:35:20;;;;;;;;;;;2.60;74.80;;;;;;4967878;28;20278;-45
2020/12/27 04:37:51;;;;;;;;;;;2.60;75.00;;;;;;4966185;28;19925;-46
2020/12/27 04:40:17;;;;;;;;;;;2.60;75.00;;;;;;4967472;28;19933;-46
2020/12/27 04:42:47;;;;;;;;;;;2.60;74.70;;;;;;4966915;28;20419;-45
2020/12/27 04:45:14;;;;;;;;;;;2.60;74.90;;;;;;4965774;28;19933;-47
2020/12/27 04:47:40;;;;;;;;;;;2.60;75.00;;;;;;4967735;28;23217;-45
2020/12/27 04:50:06;;;;;;;;;;;2.60;74.50;;;;;;4964069;28;19925;-44
2020/12/27 04:52:33;;;;;;;;;;;2.60;74.60;;;;;;4968746;28;20316;-47
2020/12/27 04:54:59;;;;;;;;;;;2.60;74.50;;;;;;4963465;28;20423;-46
2020/12/27 04:57:26;;;;;;;;;;;2.50;74.50;;;;;;4966968;28;19925;-45
2020/12/27 04:59:54;;;;;;;;;;;2.60;74.80;;;;;;4958444;28;19925;-48
2020/12/27 05:02:20;;;;;;;;;;;2.60;75.00;;;;;;4965752;28;19933;-48
2020/12/27 05:04:47;;;;;;;;;;;2.60;74.70;;;;;;4964800;28;19933;-46
2020/12/27 05:07:17;;;;;;;;;;;2.50;74.90;;;;;;4966496;28;19931;-47
2020/12/27 05:09:43;;;;;;;;;;;2.60;75.00;;;;;;4964404;28;19929;-43
2020/12/27 05:12:10;;;;;;;;;;;2.60;75.10;;;;;;4970391;28;20023;-44
2020/12/27 05:14:36;;;;;;;;;;;2.60;74.70;;;;;;4963814;28;19929;-47
2020/12/27 05:17:02;;;;;;;;;;;2.60;74.60;;;;;;4979613;28;21855;-47
2020/12/27 05:19:28;;;;;;;;;;;2.60;74.60;;;;;;4965614;28;19925;-47
2020/12/27 05:21:54;;;;;;;;;;;2.50;74.60;;;;;;4967295;28;19936;-46
2020/12/27 05:24:20;;;;;;;;;;;2.50;74.90;;;;;;4963307;28;19933;-47
2020/12/27 05:26:47;;;;;;;;;;;2.60;75.00;;;;;;4964588;28;19933;-47
2020/12/27 05:29:32;;;;;;;;;;;2.60;74.90;;;;;;4970325;28;19936;-45
2020/12/27 05:32:00;;;;;;;;;;;2.60;74.60;;;;;;4968077;28;19933;-47
2020/12/27 05:34:29;;;;;;;;;;;2.50;74.60;;;;;;4964957;28;19933;-46
2020/12/27 05:36:56;;;;;;;;;;;2.50;74.80;;;;;;4963875;28;20396;-44
2020/12/27 05:39:23;;;;;;;;;;;2.50;74.80;;;;;;4963756;28;20292;-45
2020/12/27 05:41:50;;;;;;;;;;;2.60;75.00;;;;;;4969704;28;19934;-47
2020/12/27 05:44:19;;;;;;;;;;;2.60;75.00;;;;;;4960542;28;20010;-45
2020/12/27 05:46:45;;;;;;;;;;;2.60;74.80;;;;;;4960880;28;19933;-45
2020/12/27 05:49:12;;;;;;;;;;;2.70;74.60;;;;;;4962236;28;19929;-46
2020/12/27 05:51:44;;;;;;;;;;;2.70;74.80;;;;;;4968667;28;19925;-47
2020/12/27 05:54:12;;;;;;;;;;;2.70;74.60;;;;;;4962846;28;19936;-44
2020/12/27 05:56:41;;;;;;;;;;;2.70;74.60;;;;;;4963613;28;19933;-46
2020/12/27 05:59:07;;;;;;;;;;;2.60;74.90;;;;;;4962911;28;21527;-47
2020/12/27 06:01:40;;;;;;;;;;;2.60;75.10;;;;;;4965464;28;19929;-46
2020/12/27 06:04:24;;;;;;;;;;;2.50;75.20;;;;;;4964600;28;20297;-43
2020/12/27 06:06:59;;;;;;;;;;;2.50;75.20;;;;;;4969189;28;19925;-48
2020/12/27 06:09:45;;;;;;;;;;;2.50;75.20;;;;;;4964405;28;19929;-45
2020/12/27 06:12:12;;;;;;;;;;;2.50;75.30;;;;;;4962445;28;19933;-48
2020/12/27 06:14:39;;;;;;;;;;;2.40;75.60;;;;;;4964547;28;19932;-45
2020/12/27 06:17:13;;;;;;;;;;;2.50;75.50;;;;;;4961103;28;24643;-45
2020/12/27 06:19:59;;;;;;;;;;;2.40;75.40;;;;;;4964765;28;20373;-46
2020/12/27 06:22:26;;;;;;;;;;;2.40;75.90;;;;;;4965760;28;19933;-47
2020/12/27 06:24:52;;;;;;;;;;;2.40;75.90;;;;;;4959514;28;19929;-46
2020/12/27 06:27:18;;;;;;;;;;;2.40;75.80;;;;;;4965162;28;19926;-47
2020/12/27 06:29:48;;;;;;;;;;;2.40;76.20;;;;;;4965036;28;19932;-47
2020/12/27 06:32:21;;;;;;;;;;;2.50;76.20;;;;;;4962835;28;19925;-48
2020/12/27 06:34:48;;;;;;;;;;;2.50;75.80;;;;;;4963144;28;19948;-43
2020/12/27 06:37:15;;;;;;;;;;;2.50;75.90;;;;;;4962787;28;19968;-47
2020/12/27 06:39:45;;;;;;;;;;;2.50;75.60;;;;;;4959088;28;19937;-46
2020/12/27 06:42:16;;;;;;;;;;;2.50;75.40;;;;;;4961943;28;20392;-46
2020/12/27 06:44:43;;;;;;;;;;;2.60;75.00;;;;;;4960977;28;19931;-47
2020/12/27 06:47:10;;;;;;;;;;;2.60;74.90;;;;;;4967401;28;19932;-43
2020/12/27 06:49:37;;;;;;;;;;;2.60;75.20;;;;;;4963810;28;19932;-45
2020/12/27 06:52:19;;;;;;;;;;;2.60;75.20;;;;;;4959860;28;19933;-44
2020/12/27 06:54:49;;;;;;;;;;;2.60;75.20;;;;;;4962710;28;19925;-46
2020/12/27 06:57:34;;;;;;;;;;;2.50;75.10;;;;;;4964518;28;19931;-43
2020/12/27 07:00:19;;;;;;;;;;;2.50;75.40;;;;;;4963314;28;19933;-43
2020/12/27 07:02:46;;;;;;;;;;;2.60;75.40;;;;;;4961410;28;19925;-45
2020/12/27 07:05:29;;;;;;;;;;;2.60;75.20;;;;;;4958134;28;21959;-43
2020/12/27 07:07:56;;;;;;;;;;;2.60;75.20;;;;;;4963546;28;20408;-46
2020/12/27 07:10:23;;;;;;;;;;;2.60;75.40;;;;;;4964041;28;19939;-43
2020/12/27 07:12:49;;;;;;;;;;;2.60;75.50;;;;;;4964940;28;19925;-46
2020/12/27 07:15:15;;;;;;;;;;;2.50;75.60;;;;;;4965320;28;19940;-44
2020/12/27 07:17:42;;;;;;;;;;;2.60;75.60;;;;;;4962641;28;20283;-46
2020/12/27 07:20:15;;;;;;;;;;;2.60;75.90;;;;;;4970001;28;19929;-47
2020/12/27 07:22:42;;;;;;;;;;;2.60;75.60;;;;;;4964241;28;19947;-46
2020/12/27 07:25:13;;;;;;;;;;;2.60;75.40;;;;;;4965698;28;19932;-46
2020/12/27 07:27:40;;;;;;;;;;;2.60;75.60;;;;;;4965155;28;19933;-47
2020/12/27 07:30:07;;;;;;;;;;;2.70;75.50;;;;;;4962353;28;19929;-46
2020/12/27 07:32:40;;;;;;;;;;;2.70;75.40;;;;;;4972161;28;20301;-44
2020/12/27 07:35:08;;;;;;;;;;;2.70;75.80;;;;;;4965445;28;19952;-47
2020/12/27 07:37:36;;;;;;;;;;;2.70;75.80;;;;;;4967494;28;19933;-45
2020/12/27 07:40:03;;;;;;;;;;;2.70;75.80;;;;;;4969045;28;22760;-47
2020/12/27 07:42:30;;;;;;;;;;;2.70;75.80;;;;;;4966376;28;19925;-45
2020/12/27 07:44:58;;;;;;;;;;;2.70;75.60;;;;;;4972185;28;20369;-48
2020/12/27 07:47:25;;;;;;;;;;;2.70;75.90;;;;;;4966806;28;19935;-46
2020/12/27 07:50:13;;;;;;;;;;;2.80;75.70;;;;;;4965182;28;19940;-46
2020/12/27 07:52:43;;;;;;;;;;;2.80;75.40;;;;;;4965429;28;19930;-47
2020/12/27 07:55:10;;;;;;;;;;;2.80;75.40;;;;;;4964843;28;19936;-47
2020/12/27 07:57:37;;;;;;;;;;;2.80;75.40;;;;;;4968833;28;20305;-45
2020/12/27 08:00:04;;;;;;;;;;;2.80;75.60;;;;;;4970449;28;19925;-45
2020/12/27 08:02:34;;;;;;;;;;;2.80;75.60;;;;;;4970203;28;19936;-47
2020/12/27 08:05:00;;;;;;;;;;;2.80;75.50;;;;;;4964442;28;19933;-46
2020/12/27 08:07:27;;;;;;;;;;;2.80;75.70;;;;;;4966778;28;19945;-45
2020/12/27 08:09:53;;;;;;;;;;;2.70;75.90;;;;;;4981553;28;19932;-46
2020/12/27 08:12:19;;;;;;;;;;;2.70;75.70;;;;;;4969044;28;20620;-46
2020/12/27 08:14:45;;;;;;;;;;;2.80;75.50;;;;;;4964799;28;19933;-46
2020/12/27 08:17:15;;;;;;;;;;;2.70;75.70;;;;;;4966101;28;19929;-42
2020/12/27 08:19:41;;;;;;;;;;;2.80;75.30;;;;;;4959939;28;19926;-44
2020/12/27 08:22:10;;;;;;;;;;;2.80;75.10;;;;;;4963959;28;23975;-46
2020/12/27 08:24:36;;;;;;;;;;;2.80;75.10;;;;;;4968857;28;20274;-48
2020/12/27 08:27:06;;;;;;;;;;;2.80;75.20;;;;;;4965836;28;19933;-47
2020/12/27 08:29:32;;;;;;;;;;;2.80;75.40;;;;;;4965776;28;19933;-47
2020/12/27 08:32:05;;;;;;;;;;;2.80;75.40;;;;;;4967466;28;19933;-44
2020/12/27 08:34:32;;;;;;;;;;;2.90;75.40;;;;;;4965865;28;19925;-46
2020/12/27 08:36:59;;;;;;;;;;;2.90;75.10;;;;;;4966155;28;19928;-47
2020/12/27 08:39:35;;;;;;;;;;;2.90;75.10;;;;;;4963142;28;19925;-44
2020/12/27 08:42:11;;;;;;;;;;;2.90;74.90;;;;;;4966743;28;20030;-45
2020/12/27 08:44:38;;;;;;;;;;;3.00;74.70;;;;;;4968382;28;20397;-47
2020/12/27 08:47:04;;;;;;;;;;;2.90;74.70;;;;;;4967126;28;20674;-43
2020/12/27 08:49:30;;;;;;;;;;;2.90;74.30;;;;;;4969193;28;19933;-44
2020/12/27 08:52:12;;;;;;;;;;;2.90;74.00;;;;;;4971098;28;20409;-47
2020/12/27 08:54:38;;;;;;;;;;;2.90;74.00;;;;;;4966859;28;19933;-45
2020/12/27 08:57:06;;;;;;;;;;;2.90;73.70;;;;;;4967376;28;19925;-47
2020/12/27 08:59:33;;;;;;;;;;;2.90;73.80;;;;;;4967841;28;19933;-45
2020/12/27 09:02:11;;;;;;;;;;;2.80;74.00;;;;;;4969001;28;20293;-45
2020/12/27 09:04:42;;;;;;;;;;;2.80;74.00;;;;;;4969185;28;19933;-45
2020/12/27 09:07:08;;;;;;;;;;;2.90;73.70;;;;;;4964872;28;19929;-44
2020/12/27 09:09:34;;;;;;;;;;;2.90;73.80;;;;;;4966481;28;19925;-44
2020/12/27 09:12:08;;;;;;;;;;;2.80;73.70;;;;;;4966684;28;19933;-43
2020/12/27 09:14:35;;;;;;;;;;;2.80;73.50;;;;;;4966902;28;19926;-48
2020/12/27 09:17:05;;;;;;;;;;;2.80;73.50;;;;;;4966218;28;19925;-47
2020/12/27 09:19:37;;;;;;;;;;;2.80;73.60;;;;;;4966785;28;20068;-46
2020/12/27 09:22:04;;;;;;;;;;;2.80;73.60;;;;;;4960418;28;19929;-43
2020/12/27 09:24:31;;;;;;;;;;;2.90;73.70;;;;;;4964032;28;19933;-45
2020/12/27 09:27:07;;;;;;;;;;;2.90;73.60;;;;;;4966311;28;20415;-43
2020/12/27 09:29:36;;;;;;;;;;;2.90;73.40;;;;;;4963914;28;19937;-46
2020/12/27 09:32:10;;;;;;;;;;;2.90;73.40;;;;;;4963652;28;20483;-45
2020/12/27 09:34:39;;;;;;;;;;;2.90;73.30;;;;;;4948379;28;19960;-47
2020/12/27 09:37:15;;;;;;;;;;;2.90;73.40;;;;;;4962832;28;21157;-44
2020/12/27 09:39:41;;;;;;;;;;;3.00;73.30;;;;;;4964745;28;19925;-46
2020/12/27 09:42:19;;;;;;;;;;;3.00;73.10;;;;;;4960235;28;19980;-47
2020/12/27 09:44:45;;;;;;;;;;;3.00;72.70;;;;;;4964557;28;19925;-45
2020/12/27 09:47:19;;;;;;;;;;;3.00;72.70;;;;;;4963136;28;20231;-47
2020/12/27 09:49:57;;;;;;;;;;;3.00;72.30;;;;;;4963826;28;19929;-44
2020/12/27 09:52:23;;;;;;;;;;;3.00;72.40;;;;;;4964038;28;20209;-46
2020/12/27 09:54:49;;;;;;;;;;;3.00;72.60;;;;;;4964090;28;19933;-45
2020/12/27 09:57:20;;;;;;;;;;;3.00;72.60;;;;;;4962182;28;19936;-44
2020/12/27 09:59:51;;;;;;;;;;;3.00;72.60;;;;;;4961672;28;20391;-42
2020/12/27 10:02:18;;;;;;;;;;;3.00;72.70;;;;;;4974213;28;19934;-46
2020/12/27 10:04:45;;;;;;;;;;;3.00;72.60;;;;;;4961520;28;20404;-45
2020/12/27 10:07:11;;;;;;;;;;;3.10;72.70;;;;;;4960712;28;20297;-45
2020/12/27 10:09:37;;;;;;;;;;;3.10;72.20;;;;;;4966232;28;20341;-45
2020/12/27 10:12:06;;;;;;;;;;;3.10;72.30;;;;;;4960037;28;19940;-45
2020/12/27 10:14:35;;;;;;;;;;;3.10;72.20;;;;;;4958996;28;20365;-40
2020/12/27 10:17:02;;;;;;;;;;;3.10;72.20;;;;;;4966122;28;19925;-47
2020/12/27 10:19:29;;;;;;;;;;;3.10;72.60;;;;;;4959812;28;19930;-48
2020/12/27 10:21:59;;;;;;;;;;;3.10;72.30;;;;;;4944105;28;20255;-45
2020/12/27 10:24:31;;;;;;;;;;;3.10;72.40;;;;;;4953333;28;20965;-45
2020/12/27 10:26:58;;;;;;;;;;;3.10;72.40;;;;;;4958275;28;19933;-45
2020/12/27 10:29:25;;;;;;;;;;;3.20;72.00;;;;;;4953586;28;19931;-43
2020/12/27 10:31:52;;;;;;;;;;;3.10;71.70;;;;;;4962413;28;19926;-43
2020/12/27 10:34:19;;;;;;;;;;;3.10;71.50;;;;;;4962073;28;20286;-44
2020/12/27 10:36:46;;;;;;;;;;;3.10;71.70;;;;;;4956166;28;19933;-45
2020/12/27 10:39:12;;;;;;;;;;;3.10;71.60;;;;;;4956298;28;19932;-42
2020/12/27 10:41:44;;;;;;;;;;;3.10;71.70;;;;;;4961189;28;19929;-43
2020/12/27 10:44:11;;;;;;;;;;;3.20;71.80;;;;;;4957831;28;20031;-44
2020/12/27 10:46:39;;;;;;;;;;;3.20;71.70;;;;;;4962736;28;19925;-44
2020/12/27 10:49:06;;;;;;;;;;;3.10;71.80;;;;;;4963728;28;19932;-42
2020/12/27 10:51:35;;;;;;;;;;;3.10;71.90;;;;;;4961805;28;19933;-44
2020/12/27 10:54:03;;;;;;;;;;;3.10;71.50;;;;;;4965612;28;19940;-44
2020/12/27 10:56:29;;;;;;;;;;;3.20;71.70;;;;;;4961997;28;22690;-44
2020/12/27 10:58:55;;;;;;;;;;;3.20;71.80;;;;;;4970155;28;20397;-45
2020/12/27 11:01:24;;;;;;;;;;;3.30;71.40;;;;;;4964580;28;19933;-44
2020/12/27 11:03:51;;;;;;;;;;;3.20;71.60;;;;;;4940731;28;20302;-43
2020/12/27 11:06:17;;;;;;;;;;;3.20;71.10;;;;;;4950780;28;19944;-43
2020/12/27 11:08:44;;;;;;;;;;;3.20;71.40;;;;;;4951220;28;19926;-43
2020/12/27 11:11:10;;;;;;;;;;;3.20;71.40;;;;;;4961797;28;20360;-44
2020/12/27 11:13:36;;;;;;;;;;;3.20;71.70;;;;;;4954011;28;21761;-44
2020/12/27 11:16:06;;;;;;;;;;;3.20;71.80;;;;;;4946999;28;19936;-44
2020/12/27 11:18:32;;;;;;;;;;;3.30;71.60;;;;;;4958668;28;20286;-44
2020/12/27 11:20:59;;;;;;;;;;;3.30;71.40;;;;;;4951726;28;19940;-45
2020/12/27 11:23:27;;;;;;;;;;;3.40;71.20;;;;;;4951827;28;19932;-45
2020/12/27 11:25:53;;;;;;;;;;;3.40;71.40;;;;;;4963241;28;20203;-45
2020/12/27 11:28:20;;;;;;;;;;;3.40;71.30;;;;;;4970870;28;19925;-44
2020/12/27 11:30:46;;;;;;;;;;;3.40;71.10;;;;;;4970779;28;19933;-43
2020/12/27 11:33:12;;;;;;;;;;;3.40;71.00;;;;;;4966741;28;19932;-43
2020/12/27 11:35:46;;;;;;;;;;;3.40;71.10;;;;;;4968153;28;20047;-44
2020/12/27 11:38:13;;;;;;;;;;;3.40;71.10;;;;;;4968932;28;21743;-44
2020/12/27 11:40:39;;;;;;;;;;;3.40;71.20;;;;;;4965727;28;20028;-43
2020/12/27 11:43:05;;;;;;;;;;;3.50;71.20;;;;;;4984979;28;19925;-44
2020/12/27 11:45:31;;;;;;;;;;;3.50;70.90;;;;;;4966377;28;19933;-43
2020/12/27 11:47:58;;;;;;;;;;;3.50;70.80;;;;;;4966032;28;20836;-44
2020/12/27 11:50:24;;;;;;;;;;;3.50;70.80;;;;;;4966897;28;19929;-44
2020/12/27 11:52:50;;;;;;;;;;;3.50;70.80;;;;;;4971477;28;19932;-44
2020/12/27 11:55:17;;;;;;;;;;;3.50;70.90;;;;;;4965566;28;20296;-44
2020/12/27 11:57:43;;;;;;;;;;;3.50;70.80;;;;;;4965195;28;20377;-44
2020/12/27 12:00:10;;;;;;;;;;;3.60;70.80;;;;;;4968300;28;19935;-44
2020/12/27 12:02:36;;;;;;;;;;;3.60;70.80;;;;;;4965351;28;19933;-43
2020/12/27 12:05:02;;;;;;;;;;;3.50;70.60;;;;;;4973560;28;19944;-43
2020/12/27 12:07:29;;;;;;;;;;;3.60;70.90;;;;;;4966898;28;20293;-44
2020/12/27 12:09:55;;;;;;;;;;;3.60;70.70;;;;;;4971799;28;19933;-43
2020/12/27 12:12:21;;;;;;;;;;;3.60;70.60;;;;;;4965670;28;19936;-44
2020/12/27 12:14:47;;;;;;;;;;;3.60;70.70;;;;;;4963163;28;19925;-43
2020/12/27 12:17:14;;;;;;;;;;;3.60;71.00;;;;;;4964899;28;19926;-44
2020/12/27 12:19:42;;;;;;;;;;;3.60;70.80;;;;;;4968009;28;20277;-45
2020/12/27 12:22:13;;;;;;;;;;;3.70;70.60;;;;;;4964509;28;19948;-45
2020/12/27 12:24:39;;;;;;;;;;;3.70;70.30;;;;;;4964653;28;20293;-43
2020/12/27 12:27:06;;;;;;;;;;;3.70;70.50;;;;;;4982272;28;20676;-44
2020/12/27 12:29:32;;;;;;;;;;;3.70;70.50;;;;;;4970480;28;19936;-45
2020/12/27 12:31:58;;;;;;;;;;;3.70;70.30;;;;;;4965759;28;22146;-44
2020/12/27 12:34:24;;;;;;;;;;;3.70;70.10;;;;;;4964122;28;20296;-43
2020/12/27 12:36:53;;;;;;;;;;;3.80;70.20;;;;;;4968855;28;19932;-43
2020/12/27 12:39:19;;;;;;;;;;;3.80;70.50;;;;;;4970253;28;19933;-44
2020/12/27 12:41:45;;;;;;;;;;;3.80;70.40;;;;;;4963032;28;19939;-45
2020/12/27 12:44:11;;;;;;;;;;;3.80;70.20;;;;;;4965496;28;19932;-45
2020/12/27 12:46:38;;;;;;;;;;;3.80;70.10;;;;;;4967804;28;19933;-46
2020/12/27 12:49:04;;;;;;;;;;;3.90;70.00;;;;;;4967063;28;20392;-46
2020/12/27 12:51:31;;;;;;;;;;;3.90;70.30;;;;;;4964285;28;19926;-47
2020/12/27 12:53:57;;;;;;;;;;;3.90;70.10;;;;;;4969387;28;19947;-45
2020/12/27 12:56:23;;;;;;;;;;;3.90;69.80;;;;;;4965800;28;20982;-48
2020/12/27 12:58:49;;;;;;;;;;;3.90;69.70;;;;;;4968909;28;20370;-44
2020/12/27 13:01:16;;;;;;;;;;;4.00;69.30;;;;;;4968196;28;19932;-44
2020/12/27 13:03:44;;;;;;;;;;;3.90;69.20;;;;;;4969821;28;20308;-43
2020/12/27 13:06:11;;;;;;;;;;;4.00;69.20;;;;;;4966571;28;19925;-45
2020/12/27 13:08:37;;;;;;;;;;;4.00;69.30;;;;;;4967876;28;19933;-45
2020/12/27 13:11:04;;;;;;;;;;;4.00;69.00;;;;;;4967485;28;20289;-45
2020/12/27 13:13:30;;;;;;;;;;;4.00;68.80;;;;;;4976501;28;19930;-44
2020/12/27 13:16:00;;;;;;;;;;;4.10;68.70;;;;;;4961947;28;19933;-45
2020/12/27 13:18:26;;;;;;;;;;;4.10;68.80;;;;;;4967081;28;19933;-45
2020/12/27 13:20:53;;;;;;;;;;;4.10;68.70;;;;;;4965430;28;19925;-43
2020/12/27 13:23:19;;;;;;;;;;;4.10;68.90;;;;;;4971180;28;20198;-44
2020/12/27 13:25:46;;;;;;;;;;;4.10;68.90;;;;;;4966386;28;19933;-44
2020/12/27 13:28:13;;;;;;;;;;;4.10;68.90;;;;;;4966036;28;21266;-44
2020/12/27 13:30:39;;;;;;;;;;;4.20;68.90;;;;;;4967413;28;19935;-44
2020/12/27 13:33:05;;;;;;;;;;;4.20;69.20;;;;;;4976039;28;19932;-45
2020/12/27 13:35:33;;;;;;;;;;;4.20;69.50;;;;;;4966850;28;19933;-43
2020/12/27 13:37:59;;;;;;;;;;;4.20;69.20;;;;;;4965033;28;20428;-44
2020/12/27 13:40:26;;;;;;;;;;;4.20;69.30;;;;;;4967500;28;19926;-44
2020/12/27 13:43:04;;;;;;;;;;;4.20;69.40;;;;;;4964222;28;19956;-46
2020/12/27 13:45:40;;;;;;;;;;;4.20;69.80;;;;;;4956521;28;19936;-43
2020/12/27 13:48:10;;;;;;;;;;;4.20;69.90;;;;;;4961134;28;20303;-46
2020/12/27 13:50:36;;;;;;;;;;;4.30;70.00;;;;;;4964433;28;20289;-47
2020/12/27 13:53:02;;;;;;;;;;;4.30;70.30;;;;;;4960743;28;19925;-46
2020/12/27 13:55:28;;;;;;;;;;;4.30;70.70;;;;;;4963152;28;19929;-48
2020/12/27 13:57:55;;;;;;;;;;;4.30;71.00;;;;;;4960803;28;19929;-46
2020/12/27 14:00:21;;;;;;;;;;;4.30;71.60;;;;;;4975155;28;19974;-43
2020/12/27 14:02:47;;;;;;;;;;;4.30;72.00;;;;;;4959160;28;20403;-46
2020/12/27 14:05:14;;;;;;;;;;;4.20;72.40;;;;;;4971563;28;19933;-46
2020/12/27 14:07:43;;;;;;;;;;;4.20;72.70;;;;;;4959061;28;20451;-45
2020/12/27 14:10:14;;;;;;;;;;;4.20;72.80;;;;;;4961453;28;19936;-46
2020/12/27 14:12:40;;;;;;;;;;;4.20;73.10;;;;;;4960306;28;21678;-46
2020/12/27 14:15:06;;;;;;;;;;;4.20;73.30;;;;;;4963636;28;20009;-48
2020/12/27 14:17:32;;;;;;;;;;;4.20;73.00;;;;;;4966041;28;20008;-47
2020/12/27 14:19:58;;;;;;;;;;;4.20;73.10;;;;;;4974563;28;20382;-48
2020/12/27 14:22:25;;;;;;;;;;;4.20;73.10;;;;;;4959411;28;19929;-46
2020/12/27 14:24:51;;;;;;;;;;;4.20;73.00;;;;;;4965227;28;19925;-48
2020/12/27 14:27:18;;;;;;;;;;;4.20;73.00;;;;;;4957377;28;19932;-44
2020/12/27 14:29:44;;;;;;;;;;;4.20;73.20;;;;;;4960515;28;21414;-45
2020/12/27 14:32:11;;;;;;;;;;;4.20;73.20;;;;;;4963609;28;20400;-44
2020/12/27 14:34:37;;;;;;;;;;;4.20;73.00;;;;;;4963594;28;19925;-44